createdAt,value
2024-01-15T00:00:31.486Z,110.39
2024-01-15T00:01:31.329Z,109.58
2024-01-15T00:02:31.285Z,110.17
2024-01-15T00:03:31.401Z,108.59
2024-01-15T00:04:31.508Z,107.71
2024-01-15T00:05:31.405Z,106.39
2024-01-15T00:06:31.515Z,109.84
2024-01-15T00:07:31.497Z,107.38
2024-01-15T00:08:31.445Z,108.04
2024-01-15T00:09:31.521Z,105.78
2024-01-15T00:10:31.541Z,108.62
2024-01-15T00:11:31.542Z,105.21
2024-01-15T00:12:31.649Z,108.86
2024-01-15T00:13:31.634Z,108.61
2024-01-15T00:14:31.676Z,105.38
2024-01-15T00:15:31.790Z,105.54
2024-01-15T00:16:31.710Z,107.08
2024-01-15T00:17:31.744Z,107.96
2024-01-15T00:18:31.892Z,102.84
2024-01-15T00:19:31.915Z,104.53
2024-01-15T00:20:31.847Z,106.54
2024-01-15T00:21:31.891Z,105.73
2024-01-15T00:22:31.910Z,104.52
2024-01-15T00:23:31.901Z,103.78
2024-01-15T00:24:31.979Z,102.90
2024-01-15T00:25:32.024Z,105.45
2024-01-15T00:26:31.980Z,104.22
2024-01-15T00:27:32.064Z,102.96
2024-01-15T00:28:32.048Z,104.37
2024-01-15T00:29:32.035Z,103.19
2024-01-15T00:30:32.145Z,105.50
2024-01-15T00:31:32.249Z,107.16
2024-01-15T00:32:32.164Z,104.07
2024-01-15T00:33:32.254Z,103.66
2024-01-15T00:34:32.306Z,103.76
2024-01-15T00:35:32.210Z,102.57
2024-01-15T00:36:32.243Z,103.28
2024-01-15T00:37:32.229Z,103.77
2024-01-15T00:38:32.277Z,103.69
2024-01-15T00:39:32.322Z,102.94
2024-01-15T00:40:32.324Z,102.35
2024-01-15T00:41:32.314Z,102.32
2024-01-15T00:42:32.461Z,101.02
2024-01-15T00:43:32.427Z,101.48
2024-01-15T00:44:32.432Z,102.04
2024-01-15T00:45:32.567Z,100.41
2024-01-15T00:46:32.570Z,101.73
2024-01-15T00:47:32.669Z,101.96
2024-01-15T00:48:32.883Z,102.97
2024-01-15T00:49:32.797Z,101.53
2024-01-15T00:50:32.740Z,100.46
2024-01-15T00:51:32.748Z,102.20
2024-01-15T00:52:32.853Z,101.28
2024-01-15T00:53:32.877Z,100.15
2024-01-15T00:54:32.978Z,99.54
2024-01-15T00:55:32.983Z,98.60
2024-01-15T00:56:33.025Z,100.16
2024-01-15T00:57:33.110Z,99.29
2024-01-15T00:58:33.122Z,100.13
2024-01-15T00:59:33.181Z,98.72
2024-01-15T01:00:33.305Z,98.20
2024-01-15T01:01:33.330Z,98.79
2024-01-15T01:02:33.321Z,99.06
2024-01-15T01:03:33.414Z,97.15
2024-01-15T01:04:33.435Z,98.67
2024-01-15T01:05:33.477Z,97.97
2024-01-15T01:06:34.579Z,95.39
2024-01-15T01:07:33.578Z,97.31
2024-01-15T01:08:33.597Z,96.49
2024-01-15T01:09:33.625Z,96.06
2024-01-15T01:10:33.697Z,94.50
2024-01-15T01:11:33.724Z,94.47
2024-01-15T01:12:33.822Z,96.05
2024-01-15T01:13:33.801Z,94.82
2024-01-15T01:14:33.841Z,96.04
2024-01-15T01:15:33.942Z,96.37
2024-01-15T01:16:33.929Z,93.96
2024-01-15T01:17:34.080Z,95.87
2024-01-15T01:18:34.185Z,93.35
2024-01-15T01:19:34.236Z,94.76
2024-01-15T01:20:34.204Z,93.54
2024-01-15T01:21:34.213Z,93.99
2024-01-15T01:22:34.207Z,94.66
2024-01-15T01:23:34.304Z,92.41
2024-01-15T01:24:34.311Z,93.78
2024-01-15T01:25:34.368Z,92.25
2024-01-15T01:26:34.371Z,91.18
2024-01-15T01:27:34.470Z,92.75
2024-01-15T01:28:34.480Z,91.43
2024-01-15T01:29:34.544Z,92.94
2024-01-15T01:30:34.657Z,92.33
2024-01-15T01:31:34.651Z,91.81
2024-01-15T01:32:34.760Z,93.49
2024-01-15T01:33:34.741Z,92.48
2024-01-15T01:34:35.059Z,90.54
2024-01-15T01:35:34.767Z,92.44
2024-01-15T01:36:34.853Z,92.88
2024-01-15T01:37:34.859Z,92.57
2024-01-15T01:38:34.892Z,90.90
2024-01-15T01:39:35.029Z,92.05
2024-01-15T01:40:34.985Z,90.72
2024-01-15T01:41:35.022Z,91.18
2024-01-15T01:42:35.084Z,91.92
2024-01-15T01:43:35.120Z,91.65
2024-01-15T01:44:35.104Z,90.29
2024-01-15T01:45:35.174Z,91.23
2024-01-15T01:46:35.152Z,91.60
2024-01-15T01:47:35.252Z,91.60
2024-01-15T01:48:35.356Z,92.36
2024-01-15T01:49:35.374Z,91.00
2024-01-15T01:50:35.355Z,92.61
2024-01-15T01:51:35.337Z,91.57
2024-01-15T01:52:35.366Z,92.56
2024-01-15T01:53:35.392Z,94.36
2024-01-15T01:54:35.479Z,93.27
2024-01-15T01:55:35.451Z,93.05
2024-01-15T01:56:35.494Z,92.66
2024-01-15T01:57:35.544Z,94.29
2024-01-15T01:58:35.573Z,92.66
2024-01-15T01:59:35.569Z,93.72
2024-01-15T02:00:35.643Z,92.12
2024-01-15T02:01:35.689Z,93.53
2024-01-15T02:02:35.770Z,91.48
2024-01-15T02:03:35.809Z,91.06
2024-01-15T02:04:35.822Z,93.19
2024-01-15T02:05:35.891Z,92.98
2024-01-15T02:06:35.953Z,91.20
2024-01-15T02:07:35.846Z,93.63
2024-01-15T02:08:35.909Z,93.01
2024-01-15T02:09:36.023Z,93.47
2024-01-15T02:10:35.957Z,91.79
2024-01-15T02:11:35.995Z,93.44
2024-01-15T02:12:36.084Z,92.88
2024-01-15T02:13:36.064Z,92.92
2024-01-15T02:14:36.083Z,89.71
2024-01-15T02:15:36.162Z,93.51
2024-01-15T02:16:36.149Z,92.41
2024-01-15T02:17:36.204Z,93.99
2024-01-15T02:18:36.315Z,94.18
2024-01-15T02:19:36.449Z,92.55
2024-01-15T02:20:36.313Z,93.01
2024-01-15T02:21:36.359Z,93.08
2024-01-15T02:22:36.387Z,92.46
2024-01-15T02:23:36.394Z,92.01
2024-01-15T02:24:36.585Z,89.82
2024-01-15T02:25:36.476Z,93.79
2024-01-15T02:26:36.509Z,91.92
2024-01-15T02:27:36.544Z,93.77
2024-01-15T02:28:36.582Z,89.98
2024-01-15T02:29:36.576Z,92.62
2024-01-15T02:30:36.775Z,92.35
2024-01-15T02:31:36.751Z,93.23
2024-01-15T02:32:36.798Z,92.13
2024-01-15T02:33:36.959Z,93.28
2024-01-15T02:34:36.970Z,91.45
2024-01-15T02:35:36.779Z,93.04
2024-01-15T02:36:36.877Z,92.91
2024-01-15T02:37:36.848Z,92.20
2024-01-15T02:38:36.880Z,92.90
2024-01-15T02:39:36.967Z,94.64
2024-01-15T02:40:37.106Z,92.71
2024-01-15T02:41:36.982Z,91.59
2024-01-15T02:42:37.028Z,93.18
2024-01-15T02:43:37.011Z,90.24
2024-01-15T02:44:37.045Z,91.86
2024-01-15T02:45:37.221Z,90.59
2024-01-15T02:46:37.154Z,93.44
2024-01-15T02:47:38.163Z,90.99
2024-01-15T02:48:37.372Z,91.69
2024-01-15T02:49:37.289Z,91.64
2024-01-15T02:50:37.360Z,92.84
2024-01-15T02:51:37.404Z,89.42
2024-01-15T02:52:37.357Z,92.97
2024-01-15T02:53:37.370Z,92.15
2024-01-15T02:54:37.450Z,91.74
2024-01-15T02:55:37.423Z,91.25
2024-01-15T02:56:37.485Z,90.06
2024-01-15T02:57:37.585Z,91.08
2024-01-15T02:58:37.547Z,92.60
2024-01-15T02:59:37.559Z,91.86
2024-01-15T03:00:37.694Z,88.36
2024-01-15T03:01:37.682Z,88.96
2024-01-15T03:02:37.638Z,90.85
2024-01-15T03:03:37.814Z,91.52
2024-01-15T03:04:37.789Z,91.17
2024-01-15T03:05:37.813Z,89.53
2024-01-15T03:06:37.854Z,90.70
2024-01-15T03:07:37.804Z,88.37
2024-01-15T03:08:37.853Z,89.74
2024-01-15T03:10:37.917Z,85.85
2024-01-15T03:11:37.966Z,86.73
2024-01-15T03:12:38.049Z,87.88
2024-01-15T03:13:38.031Z,85.75
2024-01-15T03:14:38.695Z,89.98
2024-01-15T03:15:38.138Z,87.02
2024-01-15T03:16:38.084Z,88.15
2024-01-15T03:17:38.177Z,87.81
2024-01-15T03:18:38.195Z,86.49
2024-01-15T03:19:38.265Z,89.03
2024-01-15T03:20:38.216Z,86.88
2024-01-15T03:21:38.295Z,88.30
2024-01-15T03:22:38.310Z,86.44
2024-01-15T03:23:38.316Z,88.35
2024-01-15T03:24:38.428Z,85.10
2024-01-15T03:25:38.411Z,82.75
2024-01-15T03:26:38.440Z,82.73
2024-01-15T03:27:38.497Z,84.82
2024-01-15T03:28:38.500Z,85.16
2024-01-15T03:29:38.515Z,84.42
2024-01-15T03:30:38.622Z,85.30
2024-01-15T03:31:38.682Z,83.45
2024-01-15T03:32:38.685Z,85.25
2024-01-15T03:33:38.779Z,83.70
2024-01-15T03:34:38.819Z,85.80
2024-01-15T03:35:38.729Z,86.86
2024-01-15T03:36:38.822Z,82.33
2024-01-15T03:37:38.797Z,83.80
2024-01-15T03:38:38.822Z,83.96
2024-01-15T03:39:38.940Z,84.59
2024-01-15T03:40:39.101Z,84.52
2024-01-15T03:41:38.927Z,83.08
2024-01-15T03:42:38.990Z,83.13
2024-01-15T03:43:38.997Z,85.32
2024-01-15T03:44:39.019Z,80.52
2024-01-15T03:45:39.159Z,83.15
2024-01-15T03:46:39.087Z,82.06
2024-01-15T03:47:39.126Z,82.86
2024-01-15T03:48:39.212Z,80.47
2024-01-15T03:49:39.395Z,82.53
2024-01-15T03:50:39.199Z,83.91
2024-01-15T03:51:39.334Z,81.12
2024-01-15T03:52:39.228Z,81.55
2024-01-15T03:53:39.277Z,80.28
2024-01-15T03:54:39.335Z,81.22
2024-01-15T03:55:39.321Z,82.85
2024-01-15T03:56:40.149Z,77.72
2024-01-15T03:57:39.456Z,80.12
2024-01-15T03:58:39.410Z,81.10
2024-01-15T03:59:39.438Z,80.96
2024-01-15T04:00:39.532Z,77.83
2024-01-15T04:01:39.559Z,80.51
2024-01-15T04:02:39.562Z,78.69
2024-01-15T04:03:39.648Z,78.45
2024-01-15T04:04:39.810Z,80.70
2024-01-15T04:05:39.621Z,79.43
2024-01-15T04:06:39.750Z,77.10
2024-01-15T04:07:39.672Z,78.72
2024-01-15T04:08:39.682Z,78.59
2024-01-15T04:09:39.775Z,75.18
2024-01-15T04:10:39.740Z,79.35
2024-01-15T04:11:39.758Z,78.35
2024-01-15T04:12:39.847Z,78.18
2024-01-15T04:13:41.548Z,76.10
2024-01-15T04:14:39.814Z,77.68
2024-01-15T04:15:39.871Z,79.36
2024-01-15T04:16:39.834Z,80.54
2024-01-15T04:17:39.892Z,74.87
2024-01-15T04:18:39.922Z,78.08
2024-01-15T04:19:39.860Z,75.91
2024-01-15T04:20:47.002Z,50.00
2024-01-15T04:21:47.066Z,50.00
2024-01-15T04:22:46.988Z,50.00
2024-01-15T04:23:47.017Z,50.00
2024-01-15T04:24:47.022Z,50.00
2024-01-15T04:25:47.027Z,52.00
2024-01-15T04:26:47.017Z,52.47
2024-01-15T04:27:47.191Z,51.05
2024-01-15T04:28:47.029Z,52.00
2024-01-15T04:29:47.041Z,50.00
2024-01-15T04:30:47.120Z,53.06
2024-01-15T04:31:54.311Z,50.00
2024-01-15T04:32:54.367Z,50.00
2024-01-15T04:33:54.400Z,50.00
2024-01-15T04:34:54.448Z,50.00
2024-01-15T04:35:54.316Z,50.00
2024-01-15T04:36:54.327Z,51.79
2024-01-15T04:37:54.284Z,50.00
2024-01-15T04:38:54.288Z,50.56
2024-01-15T04:39:54.309Z,51.61
2024-01-15T04:40:56.937Z,51.67
2024-01-15T04:41:54.285Z,51.75
2024-01-15T04:42:54.365Z,51.72
2024-01-15T04:43:54.306Z,51.98
2024-01-15T04:44:54.294Z,50.74
2024-01-15T04:45:54.352Z,53.52
2024-01-15T04:46:54.336Z,52.47
2024-01-15T04:47:54.307Z,53.14
2024-01-15T04:48:54.406Z,55.14
2024-01-15T04:49:54.391Z,53.56
2024-01-15T04:50:54.291Z,51.78
2024-01-15T04:51:54.344Z,55.21
2024-01-15T04:52:54.321Z,53.52
2024-01-15T04:53:54.318Z,54.30
2024-01-15T04:54:54.357Z,53.19
2024-01-15T04:55:54.348Z,53.02
2024-01-15T04:56:54.337Z,55.61
2024-01-15T04:57:54.408Z,53.43
2024-01-15T04:58:54.377Z,54.79
2024-01-15T04:59:54.323Z,54.57
2024-01-15T05:00:54.488Z,50.58
2024-01-15T05:01:54.430Z,52.99
2024-01-15T05:02:54.346Z,52.50
2024-01-15T05:03:57.404Z,50.75
2024-01-15T05:04:54.349Z,50.88
2024-01-15T05:05:54.353Z,51.33
2024-01-15T05:06:54.421Z,51.98
2024-01-15T05:07:54.349Z,53.95
2024-01-15T05:08:54.365Z,54.97
2024-01-15T05:09:54.418Z,54.97
2024-01-15T05:10:54.364Z,54.25
2024-01-15T05:11:54.370Z,54.39
2024-01-15T05:12:54.385Z,54.32
2024-01-15T05:13:54.316Z,51.93
2024-01-15T05:14:54.327Z,53.64
2024-01-15T05:15:54.449Z,53.96
2024-01-15T05:16:54.382Z,55.21
2024-01-15T05:17:54.433Z,54.51
2024-01-15T05:18:54.440Z,55.56
2024-01-15T05:19:54.503Z,53.22
2024-01-15T05:20:54.348Z,55.36
2024-01-15T05:21:54.402Z,55.02
2024-01-15T05:22:54.368Z,53.76
2024-01-15T05:23:54.381Z,55.99
2024-01-15T05:24:54.456Z,53.78
2024-01-15T05:25:54.365Z,55.11
2024-01-15T05:26:54.411Z,54.40
2024-01-15T05:27:54.422Z,55.34
2024-01-15T05:28:54.378Z,52.67
2024-01-15T05:29:54.368Z,53.80
2024-01-15T05:30:54.442Z,54.29
2024-01-15T05:31:54.421Z,54.34
2024-01-15T05:32:54.447Z,55.95
2024-01-15T05:33:54.402Z,54.23
2024-01-15T05:34:54.450Z,55.08
2024-01-15T05:35:54.430Z,55.05
2024-01-15T05:36:54.418Z,54.04
2024-01-15T05:37:54.388Z,55.87
2024-01-15T05:38:54.394Z,53.52
2024-01-15T05:39:54.473Z,54.75
2024-01-15T05:40:54.417Z,54.82
2024-01-15T05:41:54.438Z,52.93
2024-01-15T05:42:54.507Z,54.98
2024-01-15T05:43:54.430Z,55.64
2024-01-15T05:44:54.423Z,56.72
2024-01-15T05:45:54.472Z,55.56
2024-01-15T05:46:54.414Z,55.58
2024-01-15T05:47:54.472Z,54.37
2024-01-15T05:48:54.558Z,54.78
2024-01-15T05:49:54.675Z,56.61
2024-01-15T05:50:54.397Z,55.45
2024-01-15T05:51:54.549Z,55.52
2024-01-15T05:52:54.496Z,56.19
2024-01-15T05:53:54.551Z,55.16
2024-01-15T05:54:54.560Z,54.66
2024-01-15T05:55:54.572Z,53.68
2024-01-15T05:56:54.621Z,51.63
2024-01-15T05:57:54.736Z,56.18
2024-01-15T05:58:54.681Z,56.25
2024-01-15T05:59:54.774Z,54.41
2024-01-15T06:01:19.149Z,54.84
2024-01-15T06:01:54.831Z,55.05
2024-01-15T06:02:54.786Z,55.90
2024-01-15T06:03:54.839Z,57.22
2024-01-15T06:04:54.815Z,56.61
2024-01-15T06:05:54.894Z,59.22
2024-01-15T06:06:54.850Z,58.79
2024-01-15T06:07:54.788Z,58.06
2024-01-15T06:08:54.787Z,59.30
2024-01-15T06:09:54.887Z,59.56
2024-01-15T06:10:54.829Z,57.96
2024-01-15T06:11:54.825Z,57.33
2024-01-15T06:12:54.867Z,57.85
2024-01-15T06:13:54.847Z,57.03
2024-01-15T06:14:54.816Z,59.60
2024-01-15T06:15:54.894Z,58.07
2024-01-15T06:16:54.810Z,57.97
2024-01-15T06:17:54.891Z,56.29
2024-01-15T06:18:54.965Z,58.86
2024-01-15T06:19:54.861Z,57.20
2024-01-15T06:20:54.805Z,57.25
2024-01-15T06:21:55.011Z,56.83
2024-01-15T06:22:54.784Z,57.02
2024-01-15T06:23:54.796Z,57.30
2024-01-15T06:24:54.923Z,56.68
2024-01-15T06:25:54.823Z,57.94
2024-01-15T06:26:54.808Z,56.85
2024-01-15T06:27:54.877Z,57.32
2024-01-15T06:28:54.836Z,57.67
2024-01-15T06:29:54.839Z,57.33
2024-01-15T06:30:54.903Z,57.19
2024-01-15T06:31:55.137Z,58.51
2024-01-15T06:32:54.942Z,55.65
2024-01-15T06:33:54.937Z,60.70
2024-01-15T06:34:54.854Z,65.28
2024-01-15T06:35:54.803Z,68.99
2024-01-15T06:36:55.097Z,81.71
2024-01-15T06:37:54.818Z,95.47
2024-01-15T06:38:54.856Z,102.48
2024-01-15T06:39:54.857Z,97.86
2024-01-15T06:40:54.847Z,93.16
2024-01-15T06:41:54.856Z,96.08
2024-01-15T06:42:54.900Z,88.00
2024-01-15T06:43:54.826Z,75.72
2024-01-15T06:44:54.871Z,60.48
2024-01-15T06:46:17.520Z,53.04
2024-01-15T06:46:54.836Z,53.21
2024-01-15T06:47:54.895Z,52.28
2024-01-15T06:48:55.014Z,50.52
2024-01-15T06:49:54.932Z,43.61
2024-01-15T06:50:54.888Z,42.42
2024-01-15T06:51:54.978Z,51.41
2024-01-15T06:52:54.835Z,49.21
2024-01-15T06:53:54.871Z,50.56
2024-01-15T06:54:54.978Z,56.04
2024-01-15T06:55:54.884Z,54.38
2024-01-15T06:56:54.873Z,57.46
2024-01-15T06:57:54.912Z,56.60
2024-01-15T06:58:54.908Z,56.88
2024-01-15T06:59:54.855Z,60.01
2024-01-15T07:00:54.967Z,62.13
2024-01-15T07:01:54.976Z,68.28
2024-01-15T07:02:54.907Z,68.89
2024-01-15T07:03:54.957Z,75.92
2024-01-15T07:04:54.902Z,78.70
2024-01-15T07:05:54.881Z,81.96
2024-01-15T07:06:54.956Z,87.38
2024-01-15T07:07:54.885Z,90.54
2024-01-15T07:08:54.899Z,94.36
2024-01-15T07:09:54.998Z,96.33
2024-01-15T07:10:55.081Z,103.00
2024-01-15T07:11:55.091Z,107.38
2024-01-15T07:12:55.273Z,112.07
2024-01-15T07:13:55.197Z,115.64
2024-01-15T07:14:55.237Z,119.61
2024-01-15T07:15:55.493Z,121.64
2024-01-15T07:16:55.333Z,128.18
2024-01-15T07:17:55.442Z,130.23
2024-01-15T07:18:55.507Z,132.91
2024-01-15T07:19:55.498Z,137.73
2024-01-15T07:20:55.497Z,140.10
2024-01-15T07:21:57.277Z,142.59
2024-01-15T07:22:55.584Z,145.03
2024-01-15T07:23:55.698Z,149.77
2024-01-15T07:24:55.779Z,151.49
2024-01-15T07:25:55.736Z,155.36
2024-01-15T07:26:55.757Z,157.61
2024-01-15T07:27:55.852Z,159.46
2024-01-15T07:28:55.838Z,162.01
2024-01-15T07:29:57.865Z,163.10
2024-01-15T07:30:55.962Z,164.82
2024-01-15T07:31:56.043Z,164.97
2024-01-15T07:32:55.948Z,169.68
2024-01-15T07:33:55.951Z,172.46
2024-01-15T07:34:56.111Z,173.55
2024-01-15T07:35:55.886Z,177.28
2024-01-15T07:36:55.958Z,179.00
2024-01-15T07:37:55.903Z,183.72
2024-01-15T07:38:55.877Z,188.42
2024-01-15T07:39:55.937Z,191.96
2024-01-15T07:40:55.913Z,194.14
2024-01-15T07:41:56.037Z,196.66
2024-01-15T07:42:55.966Z,197.98
2024-01-15T07:43:55.928Z,197.22
2024-01-15T07:44:55.892Z,193.85
2024-01-15T07:45:56.000Z,195.88
2024-01-15T07:46:55.872Z,192.69
2024-01-15T07:47:55.940Z,191.31
2024-01-15T07:48:55.980Z,191.46
2024-01-15T07:49:55.948Z,188.22
2024-01-15T07:50:55.890Z,189.21
2024-01-15T07:51:56.159Z,185.85
2024-01-15T07:52:55.914Z,185.02
2024-01-15T07:53:55.869Z,182.97
2024-01-15T07:54:55.943Z,179.38
2024-01-15T07:55:55.885Z,180.44
2024-01-15T07:56:55.936Z,180.29
2024-01-15T07:58:02.559Z,179.82
2024-01-15T07:58:56.910Z,179.96
2024-01-15T07:59:55.885Z,180.67
2024-01-15T08:00:56.009Z,180.71
2024-01-15T08:01:56.138Z,181.39
2024-01-15T08:02:55.933Z,182.01
2024-01-15T08:03:55.994Z,182.93
2024-01-15T08:04:55.938Z,181.78
2024-01-15T08:05:55.925Z,181.66
2024-01-15T08:06:56.131Z,179.69
2024-01-15T08:07:58.403Z,179.75
2024-01-15T08:08:55.958Z,178.71
2024-01-15T08:09:56.011Z,177.52
2024-01-15T08:10:55.901Z,174.86
2024-01-15T08:11:55.901Z,174.46
2024-01-15T08:12:56.026Z,171.81
2024-01-15T08:13:55.910Z,172.81
2024-01-15T08:14:55.954Z,169.98
2024-01-15T08:15:55.978Z,168.68
2024-01-15T08:16:55.973Z,166.11
2024-01-15T08:17:55.991Z,164.94
2024-01-15T08:18:56.132Z,163.67
2024-01-15T08:19:55.993Z,163.56
2024-01-15T08:20:55.975Z,163.02
2024-01-15T08:21:56.022Z,160.02
2024-01-15T08:22:55.952Z,160.40
2024-01-15T08:23:55.945Z,159.74
2024-01-15T08:24:55.960Z,156.54
2024-01-15T08:25:55.979Z,154.38
2024-01-15T08:26:56.004Z,153.84
2024-01-15T08:27:55.986Z,152.70
2024-01-15T08:28:55.957Z,154.04
2024-01-15T08:29:55.947Z,153.86
2024-01-15T08:30:56.069Z,150.99
2024-01-15T08:31:56.016Z,148.88
2024-01-15T08:32:58.340Z,147.50
2024-01-15T08:33:56.025Z,147.54
2024-01-15T08:34:56.596Z,147.16
2024-01-15T08:35:55.927Z,147.70
2024-01-15T08:36:56.022Z,148.16
2024-01-15T08:37:55.941Z,153.50
2024-01-15T08:38:56.030Z,157.93
2024-01-15T08:39:56.110Z,169.41
2024-01-15T08:40:55.993Z,180.33
2024-01-15T08:41:55.961Z,190.46
2024-01-15T08:42:56.019Z,198.60
2024-01-15T08:43:55.970Z,200.00
2024-01-15T08:44:55.984Z,200.00
2024-01-15T08:45:56.035Z,200.76
2024-01-15T08:46:56.579Z,201.41
2024-01-15T08:47:55.983Z,200.00
2024-01-15T08:48:56.039Z,200.08
2024-01-15T08:49:55.989Z,200.52
2024-01-15T08:50:55.954Z,199.61
2024-01-15T08:51:56.050Z,200.39
2024-01-15T08:52:56.022Z,200.00
2024-01-15T08:53:55.981Z,199.61
2024-01-15T08:54:55.972Z,198.73
2024-01-15T08:55:55.997Z,198.67
2024-01-15T08:56:56.005Z,199.70
2024-01-15T08:57:56.024Z,199.91
2024-01-15T08:58:55.984Z,199.86
2024-01-15T08:59:56.419Z,200.00
2024-01-15T09:00:56.067Z,199.80
2024-01-15T09:01:55.986Z,200.00
2024-01-15T09:02:55.993Z,199.88
2024-01-15T09:03:56.069Z,199.68
2024-01-15T09:04:56.082Z,198.70
2024-01-15T09:05:56.119Z,199.54
2024-01-15T09:06:56.029Z,199.61
2024-01-15T09:07:56.022Z,199.60
2024-01-15T09:08:56.002Z,199.24
2024-01-15T09:09:56.192Z,199.54
2024-01-15T09:10:56.040Z,199.81
2024-01-15T09:11:56.079Z,199.43
2024-01-15T09:12:56.244Z,198.76
2024-01-15T09:13:56.249Z,199.52
2024-01-15T09:14:56.264Z,199.27
2024-01-15T09:15:56.483Z,199.44
2024-01-15T09:16:56.329Z,199.77
2024-01-15T09:17:56.401Z,199.11
2024-01-15T09:18:56.637Z,199.36
2024-01-15T09:19:56.596Z,199.23
2024-01-15T09:20:56.584Z,200.00
2024-01-15T09:21:56.612Z,199.77
2024-01-15T09:22:56.691Z,198.22
2024-01-15T09:23:56.692Z,197.94
2024-01-15T09:24:56.851Z,199.34
2024-01-15T09:25:57.566Z,199.04
2024-01-15T09:26:57.144Z,199.08
2024-01-15T09:27:56.927Z,198.80
2024-01-15T09:28:56.980Z,198.15
2024-01-15T09:29:56.997Z,197.96
2024-01-15T09:30:57.235Z,197.69
2024-01-15T09:31:57.234Z,197.86
2024-01-15T09:32:57.687Z,198.08
2024-01-15T09:33:57.400Z,197.25
2024-01-15T09:34:57.315Z,197.83
2024-01-15T09:35:57.320Z,197.72
2024-01-15T09:36:57.359Z,196.53
2024-01-15T09:37:57.642Z,195.04
2024-01-15T09:38:58.082Z,193.39
2024-01-15T09:39:57.490Z,192.39
2024-01-15T09:40:57.549Z,189.76
2024-01-15T09:41:57.589Z,189.19
2024-01-15T09:42:57.596Z,188.81
2024-01-15T09:43:57.587Z,187.09
2024-01-15T09:44:57.634Z,188.18
2024-01-15T09:45:57.696Z,195.04
2024-01-15T09:46:57.694Z,192.45
2024-01-15T09:47:58.636Z,184.33
2024-01-15T09:48:57.893Z,175.49
2024-01-15T09:49:58.677Z,171.13
2024-01-15T09:50:57.820Z,165.99
2024-01-15T09:52:06.085Z,161.96
2024-01-15T09:52:59.072Z,158.42
2024-01-15T09:53:57.860Z,153.44
2024-01-15T09:54:57.977Z,149.84
2024-01-15T09:55:57.875Z,147.29
2024-01-15T09:56:57.876Z,144.71
2024-01-15T09:57:57.906Z,140.52
2024-01-15T09:58:58.622Z,139.66
2024-01-15T09:59:57.864Z,140.20
2024-01-15T10:00:57.980Z,140.87
2024-01-15T10:01:57.958Z,139.43
2024-01-15T10:02:58.120Z,135.66
2024-01-15T10:03:57.947Z,135.66
2024-01-15T10:04:57.949Z,130.90
2024-01-15T10:05:57.980Z,127.88
2024-01-15T10:06:57.984Z,125.23
2024-01-15T10:07:57.977Z,116.42
2024-01-15T10:08:58.168Z,110.75
2024-01-15T10:09:58.127Z,104.74
2024-01-15T10:10:58.117Z,100.82
2024-01-15T10:11:58.111Z,100.22
2024-01-15T10:12:58.222Z,99.68
2024-01-15T10:13:58.235Z,99.02
2024-01-15T10:14:58.276Z,98.33
2024-01-15T10:15:58.443Z,97.91
2024-01-15T10:16:58.332Z,98.06
2024-01-15T10:17:58.504Z,97.96
2024-01-15T10:18:58.715Z,98.08
2024-01-15T10:19:58.499Z,96.85
2024-01-15T10:20:58.440Z,96.63
2024-01-15T10:21:58.542Z,96.98
2024-01-15T10:22:58.526Z,97.14
2024-01-15T10:23:58.531Z,97.70
2024-01-15T10:24:58.660Z,97.82
2024-01-15T10:25:58.653Z,97.74
2024-01-15T10:26:58.714Z,98.23
2024-01-15T10:27:58.924Z,97.23
2024-01-15T10:28:59.099Z,96.33
2024-01-15T10:29:58.852Z,95.86
2024-01-15T10:30:58.972Z,97.35
2024-01-15T10:31:59.016Z,98.17
2024-01-15T10:32:58.982Z,96.33
2024-01-15T10:33:59.052Z,90.08
2024-01-15T10:34:59.069Z,85.52
2024-01-15T10:35:59.099Z,83.51
2024-01-15T10:36:59.158Z,82.31
2024-01-15T10:37:59.054Z,82.04
2024-01-15T10:38:59.125Z,82.76
2024-01-15T10:39:59.122Z,81.16
2024-01-15T10:40:59.172Z,81.87
2024-01-15T10:41:59.189Z,78.67
2024-01-15T10:42:59.289Z,76.28
2024-01-15T10:43:59.324Z,76.55
2024-01-15T10:44:59.313Z,75.53
2024-01-15T10:45:59.317Z,75.30
2024-01-15T10:46:59.364Z,73.81
2024-01-15T10:47:59.458Z,72.90
2024-01-15T10:48:59.655Z,70.20
2024-01-15T10:49:59.563Z,66.02
2024-01-15T10:50:59.618Z,65.07
2024-01-15T10:51:59.894Z,64.65
2024-01-15T10:52:59.770Z,63.95
2024-01-15T10:53:59.597Z,62.76
2024-01-15T10:55:01.167Z,64.40
2024-01-15T10:55:59.648Z,65.12
2024-01-15T10:56:59.734Z,65.80
2024-01-15T10:57:59.985Z,67.78
2024-01-15T10:59:00.860Z,69.07
2024-01-15T10:59:59.919Z,70.08
2024-01-15T11:01:00.007Z,69.18
2024-01-15T11:02:00.056Z,69.30
2024-01-15T11:03:00.077Z,69.65
2024-01-15T11:04:00.211Z,70.63
2024-01-15T11:05:00.200Z,70.08
2024-01-15T11:06:00.249Z,69.74
2024-01-15T11:07:00.308Z,70.83
2024-01-15T11:08:00.208Z,70.35
2024-01-15T11:09:00.537Z,71.84
2024-01-15T11:10:00.419Z,70.61
2024-01-15T11:11:00.293Z,71.15
2024-01-15T11:12:00.342Z,71.30
2024-01-15T11:13:00.355Z,72.09
2024-01-15T11:14:00.762Z,71.27
2024-01-15T11:15:00.368Z,72.31
2024-01-15T11:16:00.446Z,71.56
2024-01-15T11:17:00.512Z,71.61
2024-01-15T11:18:00.610Z,72.38
2024-01-15T11:19:00.754Z,72.68
2024-01-15T11:20:00.627Z,72.10
2024-01-15T11:21:00.520Z,71.85
2024-01-15T11:22:00.749Z,72.12
2024-01-15T11:23:00.577Z,70.88
2024-01-15T11:24:01.412Z,69.61
2024-01-15T11:25:00.680Z,71.95
2024-01-15T11:26:00.646Z,70.54
2024-01-15T11:27:00.706Z,71.09
2024-01-15T11:28:00.794Z,69.83
2024-01-15T11:29:01.507Z,69.47
2024-01-15T11:30:00.794Z,70.05
2024-01-15T11:31:00.950Z,69.61
2024-01-15T11:32:00.999Z,69.37
2024-01-15T11:33:01.008Z,71.38
2024-01-15T11:34:01.366Z,69.07
2024-01-15T11:35:01.416Z,70.17
2024-01-15T11:36:01.021Z,70.32
2024-01-15T11:37:01.165Z,70.74
2024-01-15T11:38:01.115Z,71.08
2024-01-15T11:39:01.177Z,69.67
2024-01-15T11:40:01.285Z,68.43
2024-01-15T11:41:01.192Z,64.12
2024-01-15T11:42:01.228Z,60.93
2024-01-15T11:43:01.421Z,57.98
2024-01-15T11:44:01.657Z,55.15
2024-01-15T11:45:01.302Z,51.21
2024-01-15T11:46:01.409Z,50.00
2024-01-15T11:47:01.297Z,50.14
2024-01-15T11:48:01.431Z,50.02
2024-01-15T11:49:01.748Z,52.61
2024-01-15T11:50:01.854Z,51.65
2024-01-15T11:51:01.438Z,51.13
2024-01-15T11:52:01.491Z,51.14
2024-01-15T11:53:04.589Z,50.73
2024-01-15T11:54:02.667Z,50.75
2024-01-15T11:55:01.520Z,50.04
2024-01-15T11:56:01.545Z,47.35
2024-01-15T11:57:01.518Z,46.83
2024-01-15T11:58:01.620Z,46.93
2024-01-15T11:59:04.423Z,50.21
2024-01-15T12:00:01.647Z,48.08
2024-01-15T12:01:01.763Z,45.55
2024-01-15T12:02:01.622Z,44.31
2024-01-15T12:03:01.508Z,39.42
2024-01-15T12:04:01.759Z,35.04
2024-01-15T12:05:01.612Z,40.69
2024-01-15T12:06:01.552Z,46.43
2024-01-15T12:07:01.617Z,49.96
2024-01-15T12:08:01.552Z,50.00
2024-01-15T12:09:01.547Z,51.02
2024-01-15T12:10:01.565Z,52.05
2024-01-15T12:11:01.581Z,50.54
2024-01-15T12:12:01.568Z,50.66
2024-01-15T12:13:01.634Z,49.84
2024-01-15T12:14:01.588Z,50.12
2024-01-15T12:15:01.970Z,50.24
2024-01-15T12:16:01.581Z,50.00
2024-01-15T12:17:04.474Z,50.00
2024-01-15T12:18:01.725Z,49.16
2024-01-15T12:19:01.725Z,46.78
2024-01-15T12:20:01.597Z,45.07
2024-01-15T12:21:01.574Z,42.18
2024-01-15T12:22:01.534Z,41.27
2024-01-15T12:23:03.444Z,45.43
2024-01-15T12:24:01.551Z,44.03
2024-01-15T12:25:01.550Z,42.92
2024-01-15T12:26:01.565Z,41.17
2024-01-15T12:27:01.526Z,39.36
2024-01-15T12:28:01.593Z,39.65
2024-01-15T12:29:01.537Z,46.04
2024-01-15T12:30:02.164Z,50.12
2024-01-15T12:31:01.837Z,50.15
2024-01-15T12:32:02.189Z,50.24
2024-01-15T12:33:02.248Z,50.21
2024-01-15T12:34:01.678Z,50.08
2024-01-15T12:35:04.336Z,50.00
2024-01-15T12:36:01.630Z,50.00
2024-01-15T12:37:01.627Z,50.00
2024-01-15T12:38:01.619Z,48.27
2024-01-15T12:39:01.578Z,47.42
2024-01-15T12:40:01.617Z,46.33
2024-01-15T12:41:01.576Z,50.68
2024-01-15T12:42:01.582Z,50.93
2024-01-15T12:43:01.624Z,51.00
2024-01-15T12:44:01.599Z,50.62
2024-01-15T12:45:01.601Z,49.99
2024-01-15T12:46:01.611Z,50.26